sensor_id;sensor_type;location;lat;lon;timestamp;P1;durP1;ratioP1;P2;durP2;ratioP2
1885;SDS011;943;51.568;6.998;2022-07-29T00:01:53;3.60;;;1.30;;
1885;SDS011;943;51.568;6.998;2022-07-29T00:04:21;4.83;;;1.67;;
1885;SDS011;943;51.568;6.998;2022-07-29T00:06:50;3.70;;;1.30;;
1885;SDS011;943;51.568;6.998;2022-07-29T00:09:18;5.57;;;1.83;;
1885;SDS011;943;51.568;6.998;2022-07-29T00:11:45;4.27;;;1.20;;
1885;SDS011;943;51.568;6.998;2022-07-29T00:14:14;5.73;;;1.43;;
1885;SDS011;943;51.568;6.998;2022-07-29T00:16:42;4.93;;;1.70;;
1885;SDS011;943;51.568;6.998;2022-07-29T00:19:10;3.30;;;1.60;;
1885;SDS011;943;51.568;6.998;2022-07-29T00:21:39;5.43;;;1.60;;
1885;SDS011;943;51.568;6.998;2022-07-29T00:24:06;5.43;;;2.07;;
1885;SDS011;943;51.568;6.998;2022-07-29T00:26:34;4.27;;;1.90;;
1885;SDS011;943;51.568;6.998;2022-07-29T00:29:03;3.87;;;1.57;;
1885;SDS011;943;51.568;6.998;2022-07-29T00:31:52;6.93;;;1.90;;
1885;SDS011;943;51.568;6.998;2022-07-29T00:34:20;3.47;;;1.43;;
1885;SDS011;943;51.568;6.998;2022-07-29T00:37:06;4.87;;;1.80;;
1885;SDS011;943;51.568;6.998;2022-07-29T00:39:35;4.53;;;1.90;;
1885;SDS011;943;51.568;6.998;2022-07-29T00:42:06;3.10;;;1.60;;
1885;SDS011;943;51.568;6.998;2022-07-29T00:44:36;4.73;;;1.47;;
1885;SDS011;943;51.568;6.998;2022-07-29T00:47:09;6.50;;;2.60;;
1885;SDS011;943;51.568;6.998;2022-07-29T00:49:39;3.50;;;1.33;;
1885;SDS011;943;51.568;6.998;2022-07-29T00:52:09;6.87;;;1.60;;
1885;SDS011;943;51.568;6.998;2022-07-29T00:54:42;5.17;;;1.30;;
1885;SDS011;943;51.568;6.998;2022-07-29T00:57:11;8.33;;;1.50;;
1885;SDS011;943;51.568;6.998;2022-07-29T00:59:40;10.37;;;1.67;;
1885;SDS011;943;51.568;6.998;2022-07-29T01:02:08;2.80;;;1.40;;
1885;SDS011;943;51.568;6.998;2022-07-29T01:04:36;4.10;;;1.30;;
1885;SDS011;943;51.568;6.998;2022-07-29T01:07:04;7.60;;;1.40;;
1885;SDS011;943;51.568;6.998;2022-07-29T01:09:34;9.30;;;1.60;;
1885;SDS011;943;51.568;6.998;2022-07-29T01:12:13;6.00;;;1.37;;
1885;SDS011;943;51.568;6.998;2022-07-29T01:14:49;3.90;;;1.30;;
1885;SDS011;943;51.568;6.998;2022-07-29T01:23:56;5.30;;;1.90;;
1885;SDS011;943;51.568;6.998;2022-07-29T01:30:27;5.80;;;2.00;;
1885;SDS011;943;51.568;6.998;2022-07-29T01:33:10;3.13;;;1.40;;
1885;SDS011;943;51.568;6.998;2022-07-29T01:36:07;5.00;;;1.50;;
1885;SDS011;943;51.568;6.998;2022-07-29T01:39:10;3.87;;;1.50;;
1885;SDS011;943;51.568;6.998;2022-07-29T01:42:05;3.07;;;1.73;;
1885;SDS011;943;51.568;6.998;2022-07-29T01:45:10;4.10;;;1.50;;
1885;SDS011;943;51.568;6.998;2022-07-29T01:47:56;3.40;;;1.50;;
1885;SDS011;943;51.568;6.998;2022-07-29T01:51:14;4.53;;;1.73;;
1885;SDS011;943;51.568;6.998;2022-07-29T01:54:04;5.13;;;1.87;;
1885;SDS011;943;51.568;6.998;2022-07-29T01:57:01;2.67;;;1.80;;
1885;SDS011;943;51.568;6.998;2022-07-29T01:59:34;5.17;;;1.67;;
1885;SDS011;943;51.568;6.998;2022-07-29T02:02:07;6.97;;;1.80;;
1885;SDS011;943;51.568;6.998;2022-07-29T02:04:45;3.50;;;1.43;;
1885;SDS011;943;51.568;6.998;2022-07-29T02:07:18;7.00;;;1.90;;
1885;SDS011;943;51.568;6.998;2022-07-29T02:09:51;5.60;;;1.37;;
1885;SDS011;943;51.568;6.998;2022-07-29T02:12:22;4.37;;;1.80;;
1885;SDS011;943;51.568;6.998;2022-07-29T02:14:53;6.20;;;2.17;;
1885;SDS011;943;51.568;6.998;2022-07-29T02:17:31;4.97;;;1.60;;
1885;SDS011;943;51.568;6.998;2022-07-29T02:20:12;2.20;;;1.43;;
1885;SDS011;943;51.568;6.998;2022-07-29T02:22:42;3.27;;;1.43;;
1885;SDS011;943;51.568;6.998;2022-07-29T02:25:13;2.97;;;1.50;;
1885;SDS011;943;51.568;6.998;2022-07-29T02:27:44;4.17;;;1.67;;
1885;SDS011;943;51.568;6.998;2022-07-29T02:30:17;6.17;;;2.07;;
1885;SDS011;943;51.568;6.998;2022-07-29T02:32:49;4.00;;;1.77;;
1885;SDS011;943;51.568;6.998;2022-07-29T02:35:21;7.60;;;2.00;;
1885;SDS011;943;51.568;6.998;2022-07-29T02:37:50;6.03;;;2.13;;
1885;SDS011;943;51.568;6.998;2022-07-29T02:40:39;3.90;;;1.50;;
1885;SDS011;943;51.568;6.998;2022-07-29T02:43:11;3.20;;;1.40;;
1885;SDS011;943;51.568;6.998;2022-07-29T02:45:40;3.70;;;2.23;;
1885;SDS011;943;51.568;6.998;2022-07-29T02:48:17;5.97;;;1.83;;
1885;SDS011;943;51.568;6.998;2022-07-29T02:51:01;3.67;;;2.10;;
1885;SDS011;943;51.568;6.998;2022-07-29T02:54:09;4.27;;;1.60;;
1885;SDS011;943;51.568;6.998;2022-07-29T02:57:09;4.73;;;1.60;;
1885;SDS011;943;51.568;6.998;2022-07-29T03:00:20;6.60;;;1.67;;
1885;SDS011;943;51.568;6.998;2022-07-29T03:02:55;4.70;;;2.10;;
1885;SDS011;943;51.568;6.998;2022-07-29T03:05:32;11.30;;;1.90;;
1885;SDS011;943;51.568;6.998;2022-07-29T03:08:04;4.07;;;1.77;;
1885;SDS011;943;51.568;6.998;2022-07-29T03:10:39;5.20;;;1.47;;
1885;SDS011;943;51.568;6.998;2022-07-29T03:13:12;5.40;;;2.30;;
1885;SDS011;943;51.568;6.998;2022-07-29T03:15:42;3.27;;;2.10;;
1885;SDS011;943;51.568;6.998;2022-07-29T03:18:12;3.20;;;1.50;;
1885;SDS011;943;51.568;6.998;2022-07-29T03:20:42;4.70;;;1.43;;
1885;SDS011;943;51.568;6.998;2022-07-29T03:23:10;6.50;;;1.70;;
1885;SDS011;943;51.568;6.998;2022-07-29T03:25:38;7.27;;;1.77;;
1885;SDS011;943;51.568;6.998;2022-07-29T03:28:07;6.40;;;2.20;;
1885;SDS011;943;51.568;6.998;2022-07-29T03:30:35;3.73;;;1.67;;
1885;SDS011;943;51.568;6.998;2022-07-29T03:33:03;5.90;;;1.60;;
1885;SDS011;943;51.568;6.998;2022-07-29T03:35:39;4.47;;;2.40;;
1885;SDS011;943;51.568;6.998;2022-07-29T03:38:07;9.50;;;2.60;;
1885;SDS011;943;51.568;6.998;2022-07-29T03:40:46;5.37;;;2.13;;
1885;SDS011;943;51.568;6.998;2022-07-29T03:43:24;4.80;;;2.00;;
1885;SDS011;943;51.568;6.998;2022-07-29T03:46:02;2.93;;;1.37;;
1885;SDS011;943;51.568;6.998;2022-07-29T03:48:39;7.47;;;2.30;;
1885;SDS011;943;51.568;6.998;2022-07-29T03:51:17;6.70;;;1.60;;
1885;SDS011;943;51.568;6.998;2022-07-29T03:54:02;2.90;;;1.50;;
1885;SDS011;943;51.568;6.998;2022-07-29T03:56:37;7.57;;;1.87;;
1885;SDS011;943;51.568;6.998;2022-07-29T03:59:14;4.30;;;1.60;;
1885;SDS011;943;51.568;6.998;2022-07-29T04:01:46;5.23;;;1.87;;
1885;SDS011;943;51.568;6.998;2022-07-29T04:04:16;6.53;;;1.97;;
1885;SDS011;943;51.568;6.998;2022-07-29T04:06:46;4.53;;;1.80;;
1885;SDS011;943;51.568;6.998;2022-07-29T04:09:14;7.00;;;1.80;;
1885;SDS011;943;51.568;6.998;2022-07-29T04:11:42;9.00;;;2.27;;
1885;SDS011;943;51.568;6.998;2022-07-29T04:14:29;4.50;;;2.20;;
1885;SDS011;943;51.568;6.998;2022-07-29T04:17:01;3.03;;;1.90;;
1885;SDS011;943;51.568;6.998;2022-07-29T04:19:32;6.67;;;2.20;;
1885;SDS011;943;51.568;6.998;2022-07-29T04:22:00;5.77;;;2.03;;
1885;SDS011;943;51.568;6.998;2022-07-29T04:24:28;2.87;;;1.50;;
1885;SDS011;943;51.568;6.998;2022-07-29T04:26:56;4.77;;;2.07;;
1885;SDS011;943;51.568;6.998;2022-07-29T04:29:24;6.70;;;1.70;;
1885;SDS011;943;51.568;6.998;2022-07-29T04:31:51;5.77;;;2.20;;
1885;SDS011;943;51.568;6.998;2022-07-29T04:34:19;5.30;;;2.10;;
1885;SDS011;943;51.568;6.998;2022-07-29T04:36:46;4.90;;;2.23;;
1885;SDS011;943;51.568;6.998;2022-07-29T04:39:14;6.20;;;1.90;;
1885;SDS011;943;51.568;6.998;2022-07-29T04:41:48;9.13;;;2.43;;
1885;SDS011;943;51.568;6.998;2022-07-29T04:44:21;7.07;;;3.13;;
1885;SDS011;943;51.568;6.998;2022-07-29T04:46:54;6.70;;;2.90;;
1885;SDS011;943;51.568;6.998;2022-07-29T04:49:24;4.57;;;3.23;;
1885;SDS011;943;51.568;6.998;2022-07-29T04:51:52;6.77;;;3.20;;
1885;SDS011;943;51.568;6.998;2022-07-29T04:54:20;6.43;;;3.63;;
1885;SDS011;943;51.568;6.998;2022-07-29T04:56:50;5.30;;;3.00;;
1885;SDS011;943;51.568;6.998;2022-07-29T04:59:17;14.57;;;4.30;;
1885;SDS011;943;51.568;6.998;2022-07-29T05:01:45;5.00;;;3.47;;
1885;SDS011;943;51.568;6.998;2022-07-29T05:04:12;5.97;;;3.43;;
1885;SDS011;943;51.568;6.998;2022-07-29T05:06:41;9.90;;;3.63;;
1885;SDS011;943;51.568;6.998;2022-07-29T05:09:09;4.90;;;3.10;;
1885;SDS011;943;51.568;6.998;2022-07-29T05:11:36;6.17;;;3.20;;
1885;SDS011;943;51.568;6.998;2022-07-29T05:14:04;4.57;;;3.20;;
1885;SDS011;943;51.568;6.998;2022-07-29T05:16:32;4.80;;;2.93;;
1885;SDS011;943;51.568;6.998;2022-07-29T05:19:00;5.87;;;2.80;;
1885;SDS011;943;51.568;6.998;2022-07-29T05:21:28;5.70;;;2.47;;
1885;SDS011;943;51.568;6.998;2022-07-29T05:23:55;6.00;;;2.97;;
1885;SDS011;943;51.568;6.998;2022-07-29T05:26:26;6.40;;;2.60;;
1885;SDS011;943;51.568;6.998;2022-07-29T05:28:54;7.03;;;2.60;;
1885;SDS011;943;51.568;6.998;2022-07-29T05:31:23;5.53;;;2.50;;
1885;SDS011;943;51.568;6.998;2022-07-29T05:33:54;4.83;;;2.93;;
1885;SDS011;943;51.568;6.998;2022-07-29T05:36:24;5.63;;;2.70;;
1885;SDS011;943;51.568;6.998;2022-07-29T05:38:53;4.00;;;2.80;;
1885;SDS011;943;51.568;6.998;2022-07-29T05:41:20;4.20;;;2.33;;
1885;SDS011;943;51.568;6.998;2022-07-29T05:43:48;4.40;;;2.17;;
1885;SDS011;943;51.568;6.998;2022-07-29T05:46:18;5.03;;;2.17;;
1885;SDS011;943;51.568;6.998;2022-07-29T05:48:47;6.53;;;2.17;;
1885;SDS011;943;51.568;6.998;2022-07-29T05:51:16;5.33;;;2.57;;
1885;SDS011;943;51.568;6.998;2022-07-29T05:53:44;5.83;;;3.03;;
1885;SDS011;943;51.568;6.998;2022-07-29T05:56:11;6.90;;;3.10;;
1885;SDS011;943;51.568;6.998;2022-07-29T05:58:39;5.23;;;3.00;;
1885;SDS011;943;51.568;6.998;2022-07-29T06:01:07;6.03;;;3.17;;
1885;SDS011;943;51.568;6.998;2022-07-29T06:03:34;5.30;;;2.77;;
1885;SDS011;943;51.568;6.998;2022-07-29T06:06:04;6.00;;;3.10;;
1885;SDS011;943;51.568;6.998;2022-07-29T06:08:33;3.73;;;2.60;;
1885;SDS011;943;51.568;6.998;2022-07-29T06:11:02;4.20;;;2.70;;
1885;SDS011;943;51.568;6.998;2022-07-29T06:13:32;10.33;;;2.93;;
1885;SDS011;943;51.568;6.998;2022-07-29T06:15:59;6.30;;;3.10;;
1885;SDS011;943;51.568;6.998;2022-07-29T06:18:28;10.00;;;3.40;;
1885;SDS011;943;51.568;6.998;2022-07-29T06:20:56;6.60;;;3.10;;
1885;SDS011;943;51.568;6.998;2022-07-29T06:23:24;5.03;;;2.90;;
1885;SDS011;943;51.568;6.998;2022-07-29T06:25:52;4.57;;;2.80;;
1885;SDS011;943;51.568;6.998;2022-07-29T06:28:20;6.70;;;3.63;;
1885;SDS011;943;51.568;6.998;2022-07-29T06:30:47;7.87;;;2.50;;
1885;SDS011;943;51.568;6.998;2022-07-29T06:33:16;8.03;;;3.80;;
1885;SDS011;943;51.568;6.998;2022-07-29T06:35:46;12.13;;;3.47;;
1885;SDS011;943;51.568;6.998;2022-07-29T06:38:20;7.77;;;3.80;;
1885;SDS011;943;51.568;6.998;2022-07-29T06:40:59;5.30;;;3.10;;
1885;SDS011;943;51.568;6.998;2022-07-29T06:43:35;10.30;;;3.73;;
1885;SDS011;943;51.568;6.998;2022-07-29T06:46:20;12.10;;;4.10;;
1885;SDS011;943;51.568;6.998;2022-07-29T06:48:49;8.40;;;3.90;;
1885;SDS011;943;51.568;6.998;2022-07-29T06:51:19;6.20;;;3.93;;
1885;SDS011;943;51.568;6.998;2022-07-29T06:53:50;7.30;;;4.17;;
1885;SDS011;943;51.568;6.998;2022-07-29T06:56:38;10.67;;;4.47;;
1885;SDS011;943;51.568;6.998;2022-07-29T06:59:09;5.07;;;3.37;;
1885;SDS011;943;51.568;6.998;2022-07-29T07:01:39;5.47;;;3.00;;
1885;SDS011;943;51.568;6.998;2022-07-29T07:04:11;7.57;;;3.27;;
1885;SDS011;943;51.568;6.998;2022-07-29T07:06:40;6.40;;;3.60;;
1885;SDS011;943;51.568;6.998;2022-07-29T07:09:08;6.30;;;3.37;;
1885;SDS011;943;51.568;6.998;2022-07-29T07:11:35;6.60;;;3.33;;
1885;SDS011;943;51.568;6.998;2022-07-29T07:14:03;4.60;;;2.50;;
1885;SDS011;943;51.568;6.998;2022-07-29T07:16:31;7.40;;;3.00;;
1885;SDS011;943;51.568;6.998;2022-07-29T07:18:59;4.47;;;3.20;;
1885;SDS011;943;51.568;6.998;2022-07-29T07:21:28;13.97;;;4.23;;
1885;SDS011;943;51.568;6.998;2022-07-29T07:23:57;5.43;;;2.50;;
1885;SDS011;943;51.568;6.998;2022-07-29T07:26:26;8.00;;;2.53;;
1885;SDS011;943;51.568;6.998;2022-07-29T07:28:55;6.90;;;2.83;;
1885;SDS011;943;51.568;6.998;2022-07-29T07:31:24;5.27;;;2.80;;
1885;SDS011;943;51.568;6.998;2022-07-29T07:33:52;7.17;;;2.97;;
1885;SDS011;943;51.568;6.998;2022-07-29T07:36:20;5.67;;;3.27;;
1885;SDS011;943;51.568;6.998;2022-07-29T07:38:50;8.17;;;3.50;;
1885;SDS011;943;51.568;6.998;2022-07-29T07:41:18;7.83;;;3.13;;
1885;SDS011;943;51.568;6.998;2022-07-29T07:43:47;4.80;;;3.00;;
1885;SDS011;943;51.568;6.998;2022-07-29T07:46:15;10.67;;;3.40;;
1885;SDS011;943;51.568;6.998;2022-07-29T07:48:43;8.03;;;3.30;;
1885;SDS011;943;51.568;6.998;2022-07-29T07:51:11;5.33;;;3.33;;
1885;SDS011;943;51.568;6.998;2022-07-29T07:53:39;6.53;;;2.90;;
1885;SDS011;943;51.568;6.998;2022-07-29T07:56:08;4.63;;;2.60;;
1885;SDS011;943;51.568;6.998;2022-07-29T07:58:38;9.57;;;3.70;;
1885;SDS011;943;51.568;6.998;2022-07-29T08:01:06;6.10;;;2.70;;
1885;SDS011;943;51.568;6.998;2022-07-29T08:03:35;5.83;;;2.90;;
1885;SDS011;943;51.568;6.998;2022-07-29T08:06:05;5.10;;;2.80;;
1885;SDS011;943;51.568;6.998;2022-07-29T08:08:33;9.10;;;3.03;;
1885;SDS011;943;51.568;6.998;2022-07-29T08:11:01;7.67;;;3.27;;
1885;SDS011;943;51.568;6.998;2022-07-29T08:13:35;7.60;;;3.30;;
1885;SDS011;943;51.568;6.998;2022-07-29T08:16:05;6.30;;;3.30;;
1885;SDS011;943;51.568;6.998;2022-07-29T08:18:38;8.90;;;3.13;;
1885;SDS011;943;51.568;6.998;2022-07-29T08:21:09;8.23;;;2.67;;
1885;SDS011;943;51.568;6.998;2022-07-29T08:23:41;9.37;;;3.03;;
1885;SDS011;943;51.568;6.998;2022-07-29T08:26:19;7.70;;;3.30;;
1885;SDS011;943;51.568;6.998;2022-07-29T08:28:48;7.43;;;2.80;;
1885;SDS011;943;51.568;6.998;2022-07-29T08:31:17;5.23;;;2.83;;
1885;SDS011;943;51.568;6.998;2022-07-29T08:33:45;7.53;;;3.20;;
1885;SDS011;943;51.568;6.998;2022-07-29T08:36:12;5.87;;;3.10;;
1885;SDS011;943;51.568;6.998;2022-07-29T08:38:40;9.80;;;3.40;;
1885;SDS011;943;51.568;6.998;2022-07-29T08:41:07;9.67;;;3.60;;
1885;SDS011;943;51.568;6.998;2022-07-29T08:43:36;8.40;;;3.13;;
1885;SDS011;943;51.568;6.998;2022-07-29T08:46:04;7.07;;;2.90;;
1885;SDS011;943;51.568;6.998;2022-07-29T08:48:32;7.50;;;3.50;;
1885;SDS011;943;51.568;6.998;2022-07-29T08:51:02;4.60;;;3.00;;
1885;SDS011;943;51.568;6.998;2022-07-29T08:53:33;6.77;;;3.60;;
1885;SDS011;943;51.568;6.998;2022-07-29T08:56:04;7.27;;;4.43;;
1885;SDS011;943;51.568;6.998;2022-07-29T08:58:33;5.47;;;3.30;;
1885;SDS011;943;51.568;6.998;2022-07-29T09:01:03;8.60;;;3.67;;
1885;SDS011;943;51.568;6.998;2022-07-29T09:03:37;5.20;;;4.00;;
1885;SDS011;943;51.568;6.998;2022-07-29T09:06:12;13.93;;;4.20;;
1885;SDS011;943;51.568;6.998;2022-07-29T09:08:44;10.30;;;5.37;;
1885;SDS011;943;51.568;6.998;2022-07-29T09:11:13;6.47;;;4.03;;
1885;SDS011;943;51.568;6.998;2022-07-29T09:13:41;8.40;;;5.40;;
1885;SDS011;943;51.568;6.998;2022-07-29T09:16:09;7.37;;;4.73;;
1885;SDS011;943;51.568;6.998;2022-07-29T09:18:42;6.80;;;4.97;;
1885;SDS011;943;51.568;6.998;2022-07-29T09:21:14;8.13;;;4.00;;
1885;SDS011;943;51.568;6.998;2022-07-29T09:24:07;5.10;;;3.93;;
1885;SDS011;943;51.568;6.998;2022-07-29T09:26:41;6.37;;;4.33;;
1885;SDS011;943;51.568;6.998;2022-07-29T09:29:13;9.40;;;4.30;;
1885;SDS011;943;51.568;6.998;2022-07-29T09:31:47;8.97;;;4.13;;
1885;SDS011;943;51.568;6.998;2022-07-29T09:34:23;5.90;;;3.97;;
1885;SDS011;943;51.568;6.998;2022-07-29T09:36:57;7.77;;;4.57;;
1885;SDS011;943;51.568;6.998;2022-07-29T09:39:28;10.80;;;4.50;;
1885;SDS011;943;51.568;6.998;2022-07-29T09:42:11;10.90;;;5.20;;
1885;SDS011;943;51.568;6.998;2022-07-29T09:44:43;6.40;;;4.70;;
1885;SDS011;943;51.568;6.998;2022-07-29T09:47:17;5.43;;;4.70;;
1885;SDS011;943;51.568;6.998;2022-07-29T09:49:58;9.43;;;4.53;;
1885;SDS011;943;51.568;6.998;2022-07-29T09:52:27;7.50;;;4.77;;
1885;SDS011;943;51.568;6.998;2022-07-29T09:55:06;14.67;;;5.33;;
1885;SDS011;943;51.568;6.998;2022-07-29T09:57:44;7.80;;;5.30;;
1885;SDS011;943;51.568;6.998;2022-07-29T10:00:14;8.83;;;5.50;;
1885;SDS011;943;51.568;6.998;2022-07-29T10:02:49;8.17;;;4.87;;
1885;SDS011;943;51.568;6.998;2022-07-29T10:05:22;7.30;;;5.43;;
1885;SDS011;943;51.568;6.998;2022-07-29T10:08:02;7.00;;;5.57;;
1885;SDS011;943;51.568;6.998;2022-07-29T10:10:35;6.90;;;5.67;;
1885;SDS011;943;51.568;6.998;2022-07-29T10:13:09;8.43;;;5.27;;
1885;SDS011;943;51.568;6.998;2022-07-29T10:15:42;10.63;;;5.40;;
1885;SDS011;943;51.568;6.998;2022-07-29T10:18:13;7.07;;;4.67;;
1885;SDS011;943;51.568;6.998;2022-07-29T10:20:45;9.07;;;4.83;;
1885;SDS011;943;51.568;6.998;2022-07-29T10:23:14;9.70;;;6.07;;
1885;SDS011;943;51.568;6.998;2022-07-29T10:25:42;9.20;;;4.97;;
1885;SDS011;943;51.568;6.998;2022-07-29T10:28:12;7.97;;;5.10;;
1885;SDS011;943;51.568;6.998;2022-07-29T10:30:42;8.83;;;6.40;;
1885;SDS011;943;51.568;6.998;2022-07-29T10:44:34;9.07;;;5.33;;
1885;SDS011;943;51.568;6.998;2022-07-29T10:47:08;10.67;;;4.73;;
1885;SDS011;943;51.568;6.998;2022-07-29T10:50:00;7.93;;;5.27;;
1885;SDS011;943;51.568;6.998;2022-07-29T10:55:35;8.70;;;4.97;;
1885;SDS011;943;51.568;6.998;2022-07-29T10:58:22;10.23;;;4.70;;
1885;SDS011;943;51.568;6.998;2022-07-29T11:00:51;8.57;;;4.37;;
1885;SDS011;943;51.568;6.998;2022-07-29T11:06:22;11.10;;;5.77;;
1885;SDS011;943;51.568;6.998;2022-07-29T11:09:14;7.00;;;4.77;;
1885;SDS011;943;51.568;6.998;2022-07-29T11:12:03;9.17;;;5.20;;
1885;SDS011;943;51.568;6.998;2022-07-29T11:15:19;7.03;;;5.63;;
1885;SDS011;943;51.568;6.998;2022-07-29T11:23:19;8.97;;;5.23;;
1885;SDS011;943;51.568;6.998;2022-07-29T11:31:43;11.67;;;4.87;;
1885;SDS011;943;51.568;6.998;2022-07-29T11:48:07;5.30;;;3.97;;
1885;SDS011;943;51.568;6.998;2022-07-29T11:51:08;7.57;;;3.03;;
1885;SDS011;943;51.568;6.998;2022-07-29T11:53:38;6.80;;;3.07;;
1885;SDS011;943;51.568;6.998;2022-07-29T11:56:17;4.63;;;2.83;;
1885;SDS011;943;51.568;6.998;2022-07-29T11:59:05;5.83;;;3.10;;
1885;SDS011;943;51.568;6.998;2022-07-29T12:01:51;8.23;;;3.47;;
1885;SDS011;943;51.568;6.998;2022-07-29T12:04:53;5.33;;;3.03;;
1885;SDS011;943;51.568;6.998;2022-07-29T12:07:36;6.77;;;3.00;;
1885;SDS011;943;51.568;6.998;2022-07-29T12:10:11;6.87;;;3.20;;
1885;SDS011;943;51.568;6.998;2022-07-29T12:12:55;8.00;;;2.97;;
1885;SDS011;943;51.568;6.998;2022-07-29T12:15:30;3.63;;;2.97;;
1885;SDS011;943;51.568;6.998;2022-07-29T12:18:13;9.20;;;3.20;;
1885;SDS011;943;51.568;6.998;2022-07-29T12:20:56;4.77;;;2.43;;
1885;SDS011;943;51.568;6.998;2022-07-29T12:23:31;4.60;;;2.77;;
1885;SDS011;943;51.568;6.998;2022-07-29T12:26:04;3.90;;;2.80;;
1885;SDS011;943;51.568;6.998;2022-07-29T12:28:46;7.50;;;3.27;;
1885;SDS011;943;51.568;6.998;2022-07-29T12:31:16;4.17;;;2.97;;
1885;SDS011;943;51.568;6.998;2022-07-29T12:34:04;5.03;;;2.63;;
1885;SDS011;943;51.568;6.998;2022-07-29T12:36:32;7.80;;;3.60;;
1885;SDS011;943;51.568;6.998;2022-07-29T12:39:00;5.70;;;3.03;;
1885;SDS011;943;51.568;6.998;2022-07-29T12:41:31;5.77;;;3.20;;
1885;SDS011;943;51.568;6.998;2022-07-29T12:43:58;7.43;;;2.93;;
1885;SDS011;943;51.568;6.998;2022-07-29T12:46:26;6.60;;;3.00;;
1885;SDS011;943;51.568;6.998;2022-07-29T12:48:54;3.87;;;2.70;;
1885;SDS011;943;51.568;6.998;2022-07-29T12:51:36;12.33;;;3.47;;
1885;SDS011;943;51.568;6.998;2022-07-29T12:54:13;4.97;;;3.40;;
1885;SDS011;943;51.568;6.998;2022-07-29T12:56:43;8.30;;;3.63;;
1885;SDS011;943;51.568;6.998;2022-07-29T13:01:46;9.20;;;3.70;;
1885;SDS011;943;51.568;6.998;2022-07-29T13:04:28;8.53;;;3.50;;
1885;SDS011;943;51.568;6.998;2022-07-29T13:07:03;5.10;;;3.47;;
1885;SDS011;943;51.568;6.998;2022-07-29T13:09:36;7.43;;;3.63;;
1885;SDS011;943;51.568;6.998;2022-07-29T13:12:14;7.43;;;3.83;;
1885;SDS011;943;51.568;6.998;2022-07-29T13:14:47;6.23;;;3.60;;
1885;SDS011;943;51.568;6.998;2022-07-29T13:17:20;4.33;;;3.03;;
1885;SDS011;943;51.568;6.998;2022-07-29T13:19:50;6.70;;;4.23;;
1885;SDS011;943;51.568;6.998;2022-07-29T13:22:34;5.90;;;3.50;;
1885;SDS011;943;51.568;6.998;2022-07-29T13:25:02;6.50;;;3.43;;
1885;SDS011;943;51.568;6.998;2022-07-29T13:27:34;6.70;;;3.50;;
1885;SDS011;943;51.568;6.998;2022-07-29T13:30:07;4.90;;;3.63;;
1885;SDS011;943;51.568;6.998;2022-07-29T13:32:37;5.33;;;3.43;;
1885;SDS011;943;51.568;6.998;2022-07-29T13:35:06;6.60;;;3.50;;
1885;SDS011;943;51.568;6.998;2022-07-29T13:37:35;8.33;;;3.73;;
1885;SDS011;943;51.568;6.998;2022-07-29T13:40:07;5.53;;;3.73;;
1885;SDS011;943;51.568;6.998;2022-07-29T13:42:36;6.13;;;3.93;;
1885;SDS011;943;51.568;6.998;2022-07-29T13:45:05;8.17;;;5.00;;
1885;SDS011;943;51.568;6.998;2022-07-29T13:47:37;7.93;;;4.53;;
1885;SDS011;943;51.568;6.998;2022-07-29T13:50:12;8.23;;;5.00;;
1885;SDS011;943;51.568;6.998;2022-07-29T13:52:40;8.93;;;5.63;;
1885;SDS011;943;51.568;6.998;2022-07-29T13:55:08;7.57;;;5.57;;
1885;SDS011;943;51.568;6.998;2022-07-29T13:57:36;7.93;;;5.33;;
1885;SDS011;943;51.568;6.998;2022-07-29T14:00:04;7.60;;;6.27;;
1885;SDS011;943;51.568;6.998;2022-07-29T14:02:34;7.80;;;5.90;;
1885;SDS011;943;51.568;6.998;2022-07-29T14:05:07;5.33;;;4.83;;
1885;SDS011;943;51.568;6.998;2022-07-29T14:07:37;7.57;;;5.50;;
1885;SDS011;943;51.568;6.998;2022-07-29T14:10:06;7.50;;;5.70;;
1885;SDS011;943;51.568;6.998;2022-07-29T14:12:36;9.67;;;5.10;;
1885;SDS011;943;51.568;6.998;2022-07-29T14:15:05;7.90;;;5.60;;
1885;SDS011;943;51.568;6.998;2022-07-29T14:17:33;9.40;;;6.77;;
1885;SDS011;943;51.568;6.998;2022-07-29T14:20:01;9.13;;;6.63;;
1885;SDS011;943;51.568;6.998;2022-07-29T14:22:31;7.90;;;5.73;;
1885;SDS011;943;51.568;6.998;2022-07-29T14:25:07;8.87;;;5.47;;
1885;SDS011;943;51.568;6.998;2022-07-29T14:27:40;10.50;;;5.40;;
1885;SDS011;943;51.568;6.998;2022-07-29T14:30:10;7.33;;;5.40;;
1885;SDS011;943;51.568;6.998;2022-07-29T14:32:39;6.63;;;4.80;;
1885;SDS011;943;51.568;6.998;2022-07-29T14:35:07;8.23;;;5.83;;
1885;SDS011;943;51.568;6.998;2022-07-29T14:37:35;6.60;;;5.50;;
1885;SDS011;943;51.568;6.998;2022-07-29T14:40:06;9.43;;;6.93;;
1885;SDS011;943;51.568;6.998;2022-07-29T14:42:37;8.10;;;6.10;;
1885;SDS011;943;51.568;6.998;2022-07-29T14:45:05;7.83;;;5.30;;
1885;SDS011;943;51.568;6.998;2022-07-29T14:47:36;8.57;;;5.20;;
1885;SDS011;943;51.568;6.998;2022-07-29T14:50:06;10.13;;;6.50;;
1885;SDS011;943;51.568;6.998;2022-07-29T14:52:35;12.63;;;5.60;;
1885;SDS011;943;51.568;6.998;2022-07-29T14:55:03;10.40;;;7.13;;
1885;SDS011;943;51.568;6.998;2022-07-29T14:57:45;8.03;;;5.00;;
1885;SDS011;943;51.568;6.998;2022-07-29T15:00:14;7.33;;;5.53;;
1885;SDS011;943;51.568;6.998;2022-07-29T15:02:42;8.07;;;5.30;;
1885;SDS011;943;51.568;6.998;2022-07-29T15:05:27;6.33;;;5.07;;
1885;SDS011;943;51.568;6.998;2022-07-29T15:07:57;10.13;;;5.40;;
1885;SDS011;943;51.568;6.998;2022-07-29T15:10:26;10.73;;;5.63;;
1885;SDS011;943;51.568;6.998;2022-07-29T15:12:55;12.00;;;5.37;;
1885;SDS011;943;51.568;6.998;2022-07-29T15:15:24;9.97;;;5.10;;
1885;SDS011;943;51.568;6.998;2022-07-29T15:17:52;4.90;;;4.40;;
1885;SDS011;943;51.568;6.998;2022-07-29T15:20:21;7.60;;;4.40;;
1885;SDS011;943;51.568;6.998;2022-07-29T15:22:51;6.50;;;4.77;;
1885;SDS011;943;51.568;6.998;2022-07-29T15:25:22;13.10;;;5.47;;
1885;SDS011;943;51.568;6.998;2022-07-29T15:27:53;9.60;;;4.20;;
1885;SDS011;943;51.568;6.998;2022-07-29T15:30:27;7.00;;;5.47;;
1885;SDS011;943;51.568;6.998;2022-07-29T15:33:00;7.47;;;5.17;;
1885;SDS011;943;51.568;6.998;2022-07-29T15:35:30;8.83;;;4.80;;
1885;SDS011;943;51.568;6.998;2022-07-29T15:38:05;7.33;;;4.50;;
1885;SDS011;943;51.568;6.998;2022-07-29T15:40:36;6.63;;;4.70;;
1885;SDS011;943;51.568;6.998;2022-07-29T15:43:07;7.33;;;4.93;;
1885;SDS011;943;51.568;6.998;2022-07-29T15:45:36;6.03;;;5.00;;
1885;SDS011;943;51.568;6.998;2022-07-29T15:48:08;9.30;;;4.70;;
1885;SDS011;943;51.568;6.998;2022-07-29T15:50:40;4.53;;;3.50;;
1885;SDS011;943;51.568;6.998;2022-07-29T15:53:12;7.90;;;4.67;;
1885;SDS011;943;51.568;6.998;2022-07-29T15:55:40;8.93;;;5.07;;
1885;SDS011;943;51.568;6.998;2022-07-29T15:58:10;19.23;;;4.10;;
1885;SDS011;943;51.568;6.998;2022-07-29T16:00:38;5.57;;;3.73;;
1885;SDS011;943;51.568;6.998;2022-07-29T16:03:06;9.87;;;4.17;;
1885;SDS011;943;51.568;6.998;2022-07-29T16:05:33;5.47;;;3.53;;
1885;SDS011;943;51.568;6.998;2022-07-29T16:08:02;12.40;;;4.83;;
1885;SDS011;943;51.568;6.998;2022-07-29T16:10:31;7.47;;;3.97;;
1885;SDS011;943;51.568;6.998;2022-07-29T16:12:58;6.17;;;4.03;;
1885;SDS011;943;51.568;6.998;2022-07-29T16:15:27;5.03;;;4.30;;
1885;SDS011;943;51.568;6.998;2022-07-29T16:17:55;7.70;;;4.97;;
1885;SDS011;943;51.568;6.998;2022-07-29T16:20:22;10.53;;;5.00;;
1885;SDS011;943;51.568;6.998;2022-07-29T16:22:51;6.93;;;5.10;;
1885;SDS011;943;51.568;6.998;2022-07-29T16:25:19;8.57;;;4.77;;
1885;SDS011;943;51.568;6.998;2022-07-29T16:28:08;5.77;;;4.37;;
1885;SDS011;943;51.568;6.998;2022-07-29T16:30:36;10.87;;;4.60;;
1885;SDS011;943;51.568;6.998;2022-07-29T16:33:05;9.30;;;5.03;;
1885;SDS011;943;51.568;6.998;2022-07-29T16:35:33;5.73;;;4.50;;
1885;SDS011;943;51.568;6.998;2022-07-29T16:38:05;8.00;;;4.40;;
1885;SDS011;943;51.568;6.998;2022-07-29T16:40:33;6.90;;;4.60;;
1885;SDS011;943;51.568;6.998;2022-07-29T16:43:00;8.50;;;4.70;;
1885;SDS011;943;51.568;6.998;2022-07-29T16:45:28;8.60;;;4.00;;
1885;SDS011;943;51.568;6.998;2022-07-29T16:48:11;6.50;;;4.20;;
1885;SDS011;943;51.568;6.998;2022-07-29T16:50:44;10.07;;;4.70;;
1885;SDS011;943;51.568;6.998;2022-07-29T16:53:12;9.33;;;4.73;;
1885;SDS011;943;51.568;6.998;2022-07-29T16:55:40;10.00;;;4.00;;
1885;SDS011;943;51.568;6.998;2022-07-29T16:58:08;10.23;;;4.30;;
1885;SDS011;943;51.568;6.998;2022-07-29T17:00:37;12.10;;;4.57;;